sensor_id;sensor_type;location;lat;lon;timestamp;temperature;humidity
19088;DHT22;9676;50.916;13.352;2023-04-25T00:01:24;12.60;50.00
19088;DHT22;9676;50.916;13.352;2023-04-25T00:04:14;12.60;50.00
19088;DHT22;9676;50.916;13.352;2023-04-25T00:07:04;12.50;49.90
19088;DHT22;9676;50.916;13.352;2023-04-25T00:09:53;12.50;49.90
19088;DHT22;9676;50.916;13.352;2023-04-25T00:12:44;12.50;49.80
19088;DHT22;9676;50.916;13.352;2023-04-25T00:15:33;12.40;49.80
19088;DHT22;9676;50.916;13.352;2023-04-25T00:18:24;12.40;49.80
19088;DHT22;9676;50.916;13.352;2023-04-25T00:21:16;12.30;49.70
19088;DHT22;9676;50.916;13.352;2023-04-25T00:24:06;12.30;49.80
19088;DHT22;9676;50.916;13.352;2023-04-25T00:26:56;12.20;49.60
19088;DHT22;9676;50.916;13.352;2023-04-25T00:29:46;12.10;49.50
19088;DHT22;9676;50.916;13.352;2023-04-25T00:32:36;12.00;49.60
19088;DHT22;9676;50.916;13.352;2023-04-25T00:35:25;12.00;49.60
19088;DHT22;9676;50.916;13.352;2023-04-25T00:38:15;11.90;49.50
19088;DHT22;9676;50.916;13.352;2023-04-25T00:41:05;11.80;49.40
19088;DHT22;9676;50.916;13.352;2023-04-25T00:43:56;11.80;49.50
19088;DHT22;9676;50.916;13.352;2023-04-25T00:46:47;11.70;49.50
19088;DHT22;9676;50.916;13.352;2023-04-25T00:49:37;11.70;49.60
19088;DHT22;9676;50.916;13.352;2023-04-25T00:52:26;11.60;49.50
19088;DHT22;9676;50.916;13.352;2023-04-25T00:55:16;11.50;49.40
19088;DHT22;9676;50.916;13.352;2023-04-25T00:58:05;11.50;49.50
19088;DHT22;9676;50.916;13.352;2023-04-25T01:00:56;11.40;49.50
19088;DHT22;9676;50.916;13.352;2023-04-25T01:03:48;11.40;49.60
19088;DHT22;9676;50.916;13.352;2023-04-25T01:06:39;11.30;49.60
19088;DHT22;9676;50.916;13.352;2023-04-25T01:09:30;11.30;49.60
19088;DHT22;9676;50.916;13.352;2023-04-25T01:12:20;11.20;49.60
19088;DHT22;9676;50.916;13.352;2023-04-25T01:15:10;11.20;49.60
19088;DHT22;9676;50.916;13.352;2023-04-25T01:17:59;11.10;49.50
19088;DHT22;9676;50.916;13.352;2023-04-25T01:20:52;11.10;49.60
19088;DHT22;9676;50.916;13.352;2023-04-25T01:23:43;11.00;49.60
19088;DHT22;9676;50.916;13.352;2023-04-25T01:26:33;11.00;49.70
19088;DHT22;9676;50.916;13.352;2023-04-25T01:29:24;11.00;49.70
19088;DHT22;9676;50.916;13.352;2023-04-25T01:32:14;10.90;49.60
19088;DHT22;9676;50.916;13.352;2023-04-25T01:35:05;10.90;49.70
19088;DHT22;9676;50.916;13.352;2023-04-25T01:37:57;10.80;49.70
19088;DHT22;9676;50.916;13.352;2023-04-25T01:40:49;10.80;49.70
19088;DHT22;9676;50.916;13.352;2023-04-25T01:43:40;10.80;49.90
19088;DHT22;9676;50.916;13.352;2023-04-25T01:46:30;10.70;49.80
19088;DHT22;9676;50.916;13.352;2023-04-25T01:49:19;10.70;49.90
19088;DHT22;9676;50.916;13.352;2023-04-25T01:52:09;10.70;49.90
19088;DHT22;9676;50.916;13.352;2023-04-25T01:55:00;10.70;50.00
19088;DHT22;9676;50.916;13.352;2023-04-25T01:57:54;10.60;50.00
19088;DHT22;9676;50.916;13.352;2023-04-25T02:00:53;10.60;50.10
19088;DHT22;9676;50.916;13.352;2023-04-25T02:03:45;10.60;50.10
19088;DHT22;9676;50.916;13.352;2023-04-25T02:06:48;10.50;50.10
19088;DHT22;9676;50.916;13.352;2023-04-25T02:09:37;10.50;50.10
19088;DHT22;9676;50.916;13.352;2023-04-25T02:12:28;10.50;50.20
19088;DHT22;9676;50.916;13.352;2023-04-25T02:15:21;10.50;50.30
19088;DHT22;9676;50.916;13.352;2023-04-25T02:18:15;10.50;50.40
19088;DHT22;9676;50.916;13.352;2023-04-25T02:21:04;10.40;50.40
19088;DHT22;9676;50.916;13.352;2023-04-25T02:23:54;10.50;50.50
19088;DHT22;9676;50.916;13.352;2023-04-25T02:26:44;10.50;50.50
19088;DHT22;9676;50.916;13.352;2023-04-25T02:29:34;10.50;50.60
19088;DHT22;9676;50.916;13.352;2023-04-25T02:32:25;10.50;50.60
19088;DHT22;9676;50.916;13.352;2023-04-25T02:35:14;10.40;50.60
19088;DHT22;9676;50.916;13.352;2023-04-25T02:38:04;10.40;50.60
19088;DHT22;9676;50.916;13.352;2023-04-25T02:40:53;10.40;50.60
19088;DHT22;9676;50.916;13.352;2023-04-25T02:43:46;10.40;50.60
19088;DHT22;9676;50.916;13.352;2023-04-25T02:46:38;10.40;50.70
19088;DHT22;9676;50.916;13.352;2023-04-25T02:49:29;10.40;50.80
19088;DHT22;9676;50.916;13.352;2023-04-25T02:52:18;10.50;51.10
19088;DHT22;9676;50.916;13.352;2023-04-25T02:55:16;10.50;51.10
19088;DHT22;9676;50.916;13.352;2023-04-25T02:58:06;10.50;51.20
19088;DHT22;9676;50.916;13.352;2023-04-25T03:01:22;10.50;51.20
19088;DHT22;9676;50.916;13.352;2023-04-25T03:04:11;10.60;51.20
19088;DHT22;9676;50.916;13.352;2023-04-25T03:07:02;10.60;51.30
19088;DHT22;9676;50.916;13.352;2023-04-25T03:09:52;10.60;51.30
19088;DHT22;9676;50.916;13.352;2023-04-25T03:12:41;10.70;51.30
19088;DHT22;9676;50.916;13.352;2023-04-25T03:15:30;10.70;51.30
19088;DHT22;9676;50.916;13.352;2023-04-25T03:18:20;10.70;51.20
19088;DHT22;9676;50.916;13.352;2023-04-25T03:21:09;10.70;51.20
19088;DHT22;9676;50.916;13.352;2023-04-25T03:24:01;10.70;51.40
19088;DHT22;9676;50.916;13.352;2023-04-25T03:26:51;10.70;51.50
19088;DHT22;9676;50.916;13.352;2023-04-25T03:29:41;10.70;51.70
19088;DHT22;9676;50.916;13.352;2023-04-25T03:32:30;10.70;51.40
19088;DHT22;9676;50.916;13.352;2023-04-25T03:35:20;10.80;51.60
19088;DHT22;9676;50.916;13.352;2023-04-25T03:38:12;10.80;51.60
19088;DHT22;9676;50.916;13.352;2023-04-25T03:41:03;10.90;51.70
19088;DHT22;9676;50.916;13.352;2023-04-25T03:44:03;10.90;51.70
19088;DHT22;9676;50.916;13.352;2023-04-25T03:46:53;10.90;51.50
19088;DHT22;9676;50.916;13.352;2023-04-25T03:49:43;11.00;51.60
19088;DHT22;9676;50.916;13.352;2023-04-25T03:52:33;11.00;51.50
19088;DHT22;9676;50.916;13.352;2023-04-25T03:55:23;11.00;51.70
19088;DHT22;9676;50.916;13.352;2023-04-25T03:58:14;11.00;51.60
19088;DHT22;9676;50.916;13.352;2023-04-25T04:01:04;11.10;51.70
19088;DHT22;9676;50.916;13.352;2023-04-25T04:03:57;11.10;51.70
19088;DHT22;9676;50.916;13.352;2023-04-25T04:06:47;11.10;51.80
19088;DHT22;9676;50.916;13.352;2023-04-25T04:09:42;11.10;51.80
19088;DHT22;9676;50.916;13.352;2023-04-25T04:12:41;11.10;51.80
19088;DHT22;9676;50.916;13.352;2023-04-25T04:15:31;11.20;51.80
19088;DHT22;9676;50.916;13.352;2023-04-25T04:18:21;11.20;51.80
19088;DHT22;9676;50.916;13.352;2023-04-25T04:21:11;11.30;51.90
19088;DHT22;9676;50.916;13.352;2023-04-25T04:24:02;11.30;51.80
19088;DHT22;9676;50.916;13.352;2023-04-25T04:27:05;11.30;51.80
19088;DHT22;9676;50.916;13.352;2023-04-25T04:30:06;11.40;51.80
19088;DHT22;9676;50.916;13.352;2023-04-25T04:33:13;11.40;51.90
19088;DHT22;9676;50.916;13.352;2023-04-25T04:36:06;11.50;51.90
19088;DHT22;9676;50.916;13.352;2023-04-25T04:38:56;11.60;52.00
19088;DHT22;9676;50.916;13.352;2023-04-25T04:41:55;11.60;52.00
19088;DHT22;9676;50.916;13.352;2023-04-25T04:44:59;11.60;51.80
19088;DHT22;9676;50.916;13.352;2023-04-25T04:48:07;11.70;51.90
19088;DHT22;9676;50.916;13.352;2023-04-25T04:51:17;11.70;51.90
19088;DHT22;9676;50.916;13.352;2023-04-25T04:54:15;11.70;51.90
19088;DHT22;9676;50.916;13.352;2023-04-25T04:57:14;11.80;51.90
19088;DHT22;9676;50.916;13.352;2023-04-25T05:00:24;11.80;51.90
19088;DHT22;9676;50.916;13.352;2023-04-25T05:03:42;11.90;52.00
19088;DHT22;9676;50.916;13.352;2023-04-25T05:06:46;12.00;52.00
19088;DHT22;9676;50.916;13.352;2023-04-25T05:09:54;12.00;52.10
19088;DHT22;9676;50.916;13.352;2023-04-25T05:13:02;12.10;52.20
19088;DHT22;9676;50.916;13.352;2023-04-25T05:16:00;12.20;52.20
19088;DHT22;9676;50.916;13.352;2023-04-25T05:19:07;12.20;52.20
19088;DHT22;9676;50.916;13.352;2023-04-25T05:22:18;12.30;52.00
19088;DHT22;9676;50.916;13.352;2023-04-25T05:25:26;12.40;52.00
19088;DHT22;9676;50.916;13.352;2023-04-25T05:28:22;12.40;51.90
19088;DHT22;9676;50.916;13.352;2023-04-25T05:31:30;12.50;52.80
19088;DHT22;9676;50.916;13.352;2023-04-25T05:34:23;12.70;53.90
19088;DHT22;9676;50.916;13.352;2023-04-25T05:37:18;13.00;54.20
19088;DHT22;9676;50.916;13.352;2023-04-25T05:40:15;13.30;54.00
19088;DHT22;9676;50.916;13.352;2023-04-25T05:43:04;13.60;53.90
19088;DHT22;9676;50.916;13.352;2023-04-25T05:46:13;13.80;54.00
19088;DHT22;9676;50.916;13.352;2023-04-25T05:49:12;14.10;54.10
19088;DHT22;9676;50.916;13.352;2023-04-25T05:52:14;14.50;55.70
19088;DHT22;9676;50.916;13.352;2023-04-25T05:55:22;15.00;57.50
19088;DHT22;9676;50.916;13.352;2023-04-25T05:58:13;15.80;59.00
19088;DHT22;9676;50.916;13.352;2023-04-25T06:01:03;16.60;59.50
19088;DHT22;9676;50.916;13.352;2023-04-25T06:03:52;17.40;59.90
19088;DHT22;9676;50.916;13.352;2023-04-25T06:06:42;18.30;60.20
19088;DHT22;9676;50.916;13.352;2023-04-25T06:09:31;19.20;60.10
19088;DHT22;9676;50.916;13.352;2023-04-25T06:12:22;20.10;59.90
19088;DHT22;9676;50.916;13.352;2023-04-25T06:15:12;21.00;59.60
19088;DHT22;9676;50.916;13.352;2023-04-25T06:18:15;21.80;59.80
19088;DHT22;9676;50.916;13.352;2023-04-25T06:21:04;22.70;59.20
19088;DHT22;9676;50.916;13.352;2023-04-25T06:23:54;23.40;57.50
19088;DHT22;9676;50.916;13.352;2023-04-25T06:26:44;23.70;55.30
19088;DHT22;9676;50.916;13.352;2023-04-25T06:29:37;23.90;53.60
19088;DHT22;9676;50.916;13.352;2023-04-25T06:32:26;23.80;52.30
19088;DHT22;9676;50.916;13.352;2023-04-25T06:35:19;23.80;52.30
19088;DHT22;9676;50.916;13.352;2023-04-25T06:38:09;23.60;52.00
19088;DHT22;9676;50.916;13.352;2023-04-25T06:41:00;23.50;51.70
19088;DHT22;9676;50.916;13.352;2023-04-25T06:43:53;23.50;51.20
19088;DHT22;9676;50.916;13.352;2023-04-25T06:46:49;23.30;51.60
19088;DHT22;9676;50.916;13.352;2023-04-25T06:49:39;23.40;52.60
19088;DHT22;9676;50.916;13.352;2023-04-25T06:52:29;23.70;53.70
19088;DHT22;9676;50.916;13.352;2023-04-25T06:55:19;24.10;54.50
19088;DHT22;9676;50.916;13.352;2023-04-25T06:58:32;24.70;55.40
19088;DHT22;9676;50.916;13.352;2023-04-25T07:01:34;25.40;55.00
19088;DHT22;9676;50.916;13.352;2023-04-25T07:04:30;25.90;53.60
19088;DHT22;9676;50.916;13.352;2023-04-25T07:07:20;26.20;51.80
19088;DHT22;9676;50.916;13.352;2023-04-25T07:10:15;26.20;50.90
19088;DHT22;9676;50.916;13.352;2023-04-25T07:13:04;26.00;48.70
19088;DHT22;9676;50.916;13.352;2023-04-25T07:15:54;25.70;47.50
19088;DHT22;9676;50.916;13.352;2023-04-25T07:18:44;25.30;47.90
19088;DHT22;9676;50.916;13.352;2023-04-25T07:21:35;25.00;48.40
19088;DHT22;9676;50.916;13.352;2023-04-25T07:24:26;24.80;49.30
19088;DHT22;9676;50.916;13.352;2023-04-25T07:27:17;24.80;49.80
19088;DHT22;9676;50.916;13.352;2023-04-25T07:30:25;24.90;50.80
19088;DHT22;9676;50.916;13.352;2023-04-25T07:33:15;25.30;51.30
19088;DHT22;9676;50.916;13.352;2023-04-25T07:36:05;25.50;50.10
19088;DHT22;9676;50.916;13.352;2023-04-25T07:38:57;25.60;48.70
19088;DHT22;9676;50.916;13.352;2023-04-25T07:41:46;25.50;47.40
19088;DHT22;9676;50.916;13.352;2023-04-25T07:44:42;25.30;46.80
19088;DHT22;9676;50.916;13.352;2023-04-25T07:47:34;25.00;46.30
19088;DHT22;9676;50.916;13.352;2023-04-25T07:50:24;24.80;46.60
19088;DHT22;9676;50.916;13.352;2023-04-25T07:53:14;24.50;46.90
19088;DHT22;9676;50.916;13.352;2023-04-25T07:56:11;24.40;46.90
19088;DHT22;9676;50.916;13.352;2023-04-25T07:59:03;24.30;46.40
19088;DHT22;9676;50.916;13.352;2023-04-25T08:01:53;24.10;45.90
19088;DHT22;9676;50.916;13.352;2023-04-25T08:04:43;23.90;45.30
19088;DHT22;9676;50.916;13.352;2023-04-25T08:07:34;23.70;44.90
19088;DHT22;9676;50.916;13.352;2023-04-25T08:10:26;23.30;44.30
19088;DHT22;9676;50.916;13.352;2023-04-25T08:13:17;23.00;44.10
19088;DHT22;9676;50.916;13.352;2023-04-25T08:16:06;22.70;44.10
19088;DHT22;9676;50.916;13.352;2023-04-25T08:18:56;22.50;44.60
19088;DHT22;9676;50.916;13.352;2023-04-25T08:21:45;22.30;44.70
19088;DHT22;9676;50.916;13.352;2023-04-25T08:24:40;22.10;44.40
19088;DHT22;9676;50.916;13.352;2023-04-25T08:27:30;21.90;44.00
19088;DHT22;9676;50.916;13.352;2023-04-25T08:30:21;21.60;43.80
19088;DHT22;9676;50.916;13.352;2023-04-25T08:33:11;21.40;43.60
19088;DHT22;9676;50.916;13.352;2023-04-25T08:36:07;21.20;43.40
19088;DHT22;9676;50.916;13.352;2023-04-25T08:38:58;20.90;43.00
19088;DHT22;9676;50.916;13.352;2023-04-25T08:41:48;20.60;42.90
19088;DHT22;9676;50.916;13.352;2023-04-25T08:44:37;20.30;43.10
19088;DHT22;9676;50.916;13.352;2023-04-25T08:47:30;20.00;43.40
19088;DHT22;9676;50.916;13.352;2023-04-25T08:50:22;19.80;43.70
19088;DHT22;9676;50.916;13.352;2023-04-25T08:53:14;19.70;44.30
19088;DHT22;9676;50.916;13.352;2023-04-25T08:56:07;19.70;44.60
19088;DHT22;9676;50.916;13.352;2023-04-25T08:58:57;19.70;44.90
19088;DHT22;9676;50.916;13.352;2023-04-25T09:01:49;19.70;44.80
19088;DHT22;9676;50.916;13.352;2023-04-25T09:04:44;19.70;44.60
19088;DHT22;9676;50.916;13.352;2023-04-25T09:07:33;19.70;44.30
19088;DHT22;9676;50.916;13.352;2023-04-25T09:10:24;19.70;44.30
19088;DHT22;9676;50.916;13.352;2023-04-25T09:13:24;19.60;44.40
19088;DHT22;9676;50.916;13.352;2023-04-25T09:16:35;19.60;45.00
19088;DHT22;9676;50.916;13.352;2023-04-25T09:19:43;19.70;45.60
19088;DHT22;9676;50.916;13.352;2023-04-25T09:23:01;19.50;44.30
19088;DHT22;9676;50.916;13.352;2023-04-25T09:25:53;19.70;44.20
19088;DHT22;9676;50.916;13.352;2023-04-25T09:28:43;19.70;44.10
19088;DHT22;9676;50.916;13.352;2023-04-25T09:31:35;19.60;43.60
19088;DHT22;9676;50.916;13.352;2023-04-25T09:34:27;19.50;43.40
19088;DHT22;9676;50.916;13.352;2023-04-25T09:37:20;19.30;43.40
19088;DHT22;9676;50.916;13.352;2023-04-25T09:40:25;19.20;43.60
19088;DHT22;9676;50.916;13.352;2023-04-25T09:43:24;19.00;43.90
19088;DHT22;9676;50.916;13.352;2023-04-25T09:46:15;18.90;44.00
19088;DHT22;9676;50.916;13.352;2023-04-25T09:49:10;18.90;44.10
19088;DHT22;9676;50.916;13.352;2023-04-25T09:52:09;18.90;44.00
19088;DHT22;9676;50.916;13.352;2023-04-25T09:55:13;18.70;43.80
19088;DHT22;9676;50.916;13.352;2023-04-25T09:58:07;18.60;44.20
19088;DHT22;9676;50.916;13.352;2023-04-25T10:00:59;18.50;43.50
19088;DHT22;9676;50.916;13.352;2023-04-25T10:04:01;18.30;43.50
19088;DHT22;9676;50.916;13.352;2023-04-25T10:07:15;18.10;43.70
19088;DHT22;9676;50.916;13.352;2023-04-25T10:10:06;18.00;44.10
19088;DHT22;9676;50.916;13.352;2023-04-25T10:12:58;18.00;44.50
19088;DHT22;9676;50.916;13.352;2023-04-25T10:15:48;18.00;44.80
19088;DHT22;9676;50.916;13.352;2023-04-25T10:18:38;18.00;45.00
19088;DHT22;9676;50.916;13.352;2023-04-25T10:21:28;18.10;45.20
19088;DHT22;9676;50.916;13.352;2023-04-25T10:24:20;18.20;45.20
19088;DHT22;9676;50.916;13.352;2023-04-25T10:27:11;18.30;45.30
19088;DHT22;9676;50.916;13.352;2023-04-25T10:30:03;18.30;45.20
19088;DHT22;9676;50.916;13.352;2023-04-25T10:32:56;18.40;45.30
19088;DHT22;9676;50.916;13.352;2023-04-25T10:35:47;18.40;45.40
19088;DHT22;9676;50.916;13.352;2023-04-25T10:38:37;18.50;45.60
19088;DHT22;9676;50.916;13.352;2023-04-25T10:41:27;18.70;46.00
19088;DHT22;9676;50.916;13.352;2023-04-25T10:44:17;18.80;46.10
19088;DHT22;9676;50.916;13.352;2023-04-25T10:47:09;19.00;46.00
19088;DHT22;9676;50.916;13.352;2023-04-25T10:50:05;19.10;45.50
19088;DHT22;9676;50.916;13.352;2023-04-25T10:52:54;19.10;44.90
19088;DHT22;9676;50.916;13.352;2023-04-25T10:55:50;19.10;44.50
19088;DHT22;9676;50.916;13.352;2023-04-25T10:58:43;18.90;43.90
19088;DHT22;9676;50.916;13.352;2023-04-25T11:01:39;18.80;43.70
19088;DHT22;9676;50.916;13.352;2023-04-25T11:04:32;18.50;43.40
19088;DHT22;9676;50.916;13.352;2023-04-25T11:07:29;18.30;43.40
19088;DHT22;9676;50.916;13.352;2023-04-25T11:10:25;18.00;44.20
19088;DHT22;9676;50.916;13.352;2023-04-25T11:13:15;17.90;44.00
19088;DHT22;9676;50.916;13.352;2023-04-25T11:16:07;17.70;44.00
19088;DHT22;9676;50.916;13.352;2023-04-25T11:19:00;17.60;44.20
19088;DHT22;9676;50.916;13.352;2023-04-25T11:21:51;17.50;44.30
19088;DHT22;9676;50.916;13.352;2023-04-25T11:24:44;17.40;44.40
19088;DHT22;9676;50.916;13.352;2023-04-25T11:27:37;17.30;44.40
19088;DHT22;9676;50.916;13.352;2023-04-25T11:30:27;17.20;44.30
19088;DHT22;9676;50.916;13.352;2023-04-25T11:33:23;17.20;44.20
19088;DHT22;9676;50.916;13.352;2023-04-25T11:36:13;17.00;44.00
19088;DHT22;9676;50.916;13.352;2023-04-25T11:39:04;17.00;44.00
19088;DHT22;9676;50.916;13.352;2023-04-25T11:41:53;16.90;44.20
19088;DHT22;9676;50.916;13.352;2023-04-25T11:44:43;16.80;44.30
19088;DHT22;9676;50.916;13.352;2023-04-25T11:47:33;16.80;44.50
19088;DHT22;9676;50.916;13.352;2023-04-25T11:50:23;16.70;44.80
19088;DHT22;9676;50.916;13.352;2023-04-25T11:53:13;16.80;45.10
19088;DHT22;9676;50.916;13.352;2023-04-25T11:56:09;16.80;45.40
19088;DHT22;9676;50.916;13.352;2023-04-25T11:59:00;16.90;45.50
19088;DHT22;9676;50.916;13.352;2023-04-25T12:01:50;17.00;45.50
19088;DHT22;9676;50.916;13.352;2023-04-25T12:04:41;17.10;45.40
19088;DHT22;9676;50.916;13.352;2023-04-25T12:07:30;17.20;45.40
19088;DHT22;9676;50.916;13.352;2023-04-25T12:10:20;17.30;45.40
19088;DHT22;9676;50.916;13.352;2023-04-25T12:13:25;17.40;45.40
19088;DHT22;9676;50.916;13.352;2023-04-25T12:16:16;17.60;45.40
19088;DHT22;9676;50.916;13.352;2023-04-25T12:19:05;17.60;45.50
19088;DHT22;9676;50.916;13.352;2023-04-25T12:21:55;17.70;45.40
19088;DHT22;9676;50.916;13.352;2023-04-25T12:24:46;17.80;45.20
19088;DHT22;9676;50.916;13.352;2023-04-25T12:27:35;17.80;44.90
19088;DHT22;9676;50.916;13.352;2023-04-25T12:30:26;17.80;44.40
19088;DHT22;9676;50.916;13.352;2023-04-25T12:33:16;17.80;44.20
19088;DHT22;9676;50.916;13.352;2023-04-25T12:36:07;17.60;43.80
19088;DHT22;9676;50.916;13.352;2023-04-25T12:38:58;17.50;43.70
19088;DHT22;9676;50.916;13.352;2023-04-25T12:41:52;17.30;43.50
19088;DHT22;9676;50.916;13.352;2023-04-25T12:44:42;17.20;43.50
19088;DHT22;9676;50.916;13.352;2023-04-25T12:47:33;17.00;43.40
19088;DHT22;9676;50.916;13.352;2023-04-25T12:50:23;16.80;43.40
19088;DHT22;9676;50.916;13.352;2023-04-25T12:53:12;16.70;43.50
19088;DHT22;9676;50.916;13.352;2023-04-25T12:56:02;16.50;43.50
19088;DHT22;9676;50.916;13.352;2023-04-25T12:58:52;16.40;43.60
19088;DHT22;9676;50.916;13.352;2023-04-25T13:01:41;16.30;43.70
19088;DHT22;9676;50.916;13.352;2023-04-25T13:04:33;16.10;43.60
19088;DHT22;9676;50.916;13.352;2023-04-25T13:07:23;16.00;43.70
19088;DHT22;9676;50.916;13.352;2023-04-25T13:10:12;15.90;43.70
19088;DHT22;9676;50.916;13.352;2023-04-25T13:13:02;15.80;43.90
19088;DHT22;9676;50.916;13.352;2023-04-25T13:15:51;15.70;44.10
19088;DHT22;9676;50.916;13.352;2023-04-25T13:18:41;15.60;44.20
19088;DHT22;9676;50.916;13.352;2023-04-25T13:21:32;15.60;44.30
19088;DHT22;9676;50.916;13.352;2023-04-25T13:24:21;15.50;44.50
19088;DHT22;9676;50.916;13.352;2023-04-25T13:27:10;15.50;44.70
19088;DHT22;9676;50.916;13.352;2023-04-25T13:30:00;15.50;45.00
19088;DHT22;9676;50.916;13.352;2023-04-25T13:32:54;15.40;45.20
19088;DHT22;9676;50.916;13.352;2023-04-25T13:35:45;15.40;45.30
19088;DHT22;9676;50.916;13.352;2023-04-25T13:38:42;15.40;45.40
19088;DHT22;9676;50.916;13.352;2023-04-25T13:41:35;15.30;45.40
19088;DHT22;9676;50.916;13.352;2023-04-25T13:44:24;15.30;45.50
19088;DHT22;9676;50.916;13.352;2023-04-25T13:47:14;15.30;45.60
19088;DHT22;9676;50.916;13.352;2023-04-25T13:50:04;15.30;45.80
19088;DHT22;9676;50.916;13.352;2023-04-25T13:52:55;15.40;46.00
19088;DHT22;9676;50.916;13.352;2023-04-25T13:55:46;15.50;46.10
19088;DHT22;9676;50.916;13.352;2023-04-25T13:58:35;15.50;46.00
19088;DHT22;9676;50.916;13.352;2023-04-25T14:01:24;15.60;46.00
19088;DHT22;9676;50.916;13.352;2023-04-25T14:04:15;15.60;45.80
19088;DHT22;9676;50.916;13.352;2023-04-25T14:07:05;15.70;45.80
19088;DHT22;9676;50.916;13.352;2023-04-25T14:09:54;15.70;45.60
19088;DHT22;9676;50.916;13.352;2023-04-25T14:12:46;15.70;45.50
19088;DHT22;9676;50.916;13.352;2023-04-25T14:15:35;15.70;45.70
19088;DHT22;9676;50.916;13.352;2023-04-25T14:18:25;15.70;46.00
19088;DHT22;9676;50.916;13.352;2023-04-25T14:21:14;15.80;46.30
19088;DHT22;9676;50.916;13.352;2023-04-25T14:24:04;15.90;46.60
19088;DHT22;9676;50.916;13.352;2023-04-25T14:26:54;16.10;46.80
19088;DHT22;9676;50.916;13.352;2023-04-25T14:29:44;16.20;46.80
19088;DHT22;9676;50.916;13.352;2023-04-25T14:32:34;16.30;46.80
19088;DHT22;9676;50.916;13.352;2023-04-25T14:35:23;16.50;46.80
19088;DHT22;9676;50.916;13.352;2023-04-25T14:38:12;16.60;46.90
19088;DHT22;9676;50.916;13.352;2023-04-25T14:41:02;16.80;46.80
19088;DHT22;9676;50.916;13.352;2023-04-25T14:43:52;16.80;46.60
19088;DHT22;9676;50.916;13.352;2023-04-25T14:46:43;16.90;46.40
19088;DHT22;9676;50.916;13.352;2023-04-25T14:49:32;17.00;46.10
19088;DHT22;9676;50.916;13.352;2023-04-25T14:52:22;17.00;45.70
19088;DHT22;9676;50.916;13.352;2023-04-25T14:55:11;17.00;45.40
19088;DHT22;9676;50.916;13.352;2023-04-25T14:58:01;16.90;45.10
19088;DHT22;9676;50.916;13.352;2023-04-25T15:00:51;16.70;44.80
19088;DHT22;9676;50.916;13.352;2023-04-25T15:03:41;16.60;44.70
19088;DHT22;9676;50.916;13.352;2023-04-25T15:06:31;16.50;44.60
19088;DHT22;9676;50.916;13.352;2023-04-25T15:09:20;16.30;44.50
19088;DHT22;9676;50.916;13.352;2023-04-25T15:12:12;16.00;45.00
19088;DHT22;9676;50.916;13.352;2023-04-25T15:15:01;15.90;44.50
19088;DHT22;9676;50.916;13.352;2023-04-25T15:17:51;15.70;44.50
19088;DHT22;9676;50.916;13.352;2023-04-25T15:20:46;15.40;44.30
19088;DHT22;9676;50.916;13.352;2023-04-25T15:23:35;15.30;44.20
19088;DHT22;9676;50.916;13.352;2023-04-25T15:26:26;15.10;44.10
19088;DHT22;9676;50.916;13.352;2023-04-25T15:29:16;14.90;44.20
19088;DHT22;9676;50.916;13.352;2023-04-25T15:32:05;14.70;44.10
19088;DHT22;9676;50.916;13.352;2023-04-25T15:34:55;14.60;44.20
19088;DHT22;9676;50.916;13.352;2023-04-25T15:37:45;14.50;44.20
19088;DHT22;9676;50.916;13.352;2023-04-25T15:40:35;14.40;44.10
19088;DHT22;9676;50.916;13.352;2023-04-25T15:43:24;14.30;44.10
19088;DHT22;9676;50.916;13.352;2023-04-25T15:46:13;14.20;44.10
19088;DHT22;9676;50.916;13.352;2023-04-25T15:49:03;14.20;44.20
19088;DHT22;9676;50.916;13.352;2023-04-25T15:51:52;14.10;44.30
19088;DHT22;9676;50.916;13.352;2023-04-25T15:54:43;14.10;44.40
19088;DHT22;9676;50.916;13.352;2023-04-25T15:57:33;14.10;44.50
19088;DHT22;9676;50.916;13.352;2023-04-25T16:00:24;14.00;44.60
19088;DHT22;9676;50.916;13.352;2023-04-25T16:03:14;14.10;44.90
19088;DHT22;9676;50.916;13.352;2023-04-25T16:06:04;14.20;45.10
19088;DHT22;9676;50.916;13.352;2023-04-25T16:08:53;14.30;45.10
19088;DHT22;9676;50.916;13.352;2023-04-25T16:11:45;14.30;44.80
19088;DHT22;9676;50.916;13.352;2023-04-25T16:14:34;14.40;44.60
19088;DHT22;9676;50.916;13.352;2023-04-25T16:17:23;14.50;44.50
19088;DHT22;9676;50.916;13.352;2023-04-25T16:20:13;14.50;44.30
19088;DHT22;9676;50.916;13.352;2023-04-25T16:23:02;14.40;43.90
19088;DHT22;9676;50.916;13.352;2023-04-25T16:25:52;14.40;43.70
19088;DHT22;9676;50.916;13.352;2023-04-25T16:28:43;14.30;43.60
19088;DHT22;9676;50.916;13.352;2023-04-25T16:31:33;14.20;43.40
19088;DHT22;9676;50.916;13.352;2023-04-25T16:34:23;14.20;43.50
19088;DHT22;9676;50.916;13.352;2023-04-25T16:37:15;14.10;43.40
19088;DHT22;9676;50.916;13.352;2023-04-25T16:40:05;14.00;43.40
19088;DHT22;9676;50.916;13.352;2023-04-25T16:42:56;14.00;43.40
19088;DHT22;9676;50.916;13.352;2023-04-25T16:45:47;13.90;43.20
19088;DHT22;9676;50.916;13.352;2023-04-25T16:48:36;13.80;43.10
19088;DHT22;9676;50.916;13.352;2023-04-25T16:51:26;13.80;43.20
19088;DHT22;9676;50.916;13.352;2023-04-25T16:54:15;13.70;43.20
19088;DHT22;9676;50.916;13.352;2023-04-25T16:57:05;13.70;43.20
19088;DHT22;9676;50.916;13.352;2023-04-25T16:59:57;13.70;43.20
19088;DHT22;9676;50.916;13.352;2023-04-25T17:02:48;13.60;43.20
19088;DHT22;9676;50.916;13.352;2023-04-25T17:05:39;13.60;43.20
19088;DHT22;9676;50.916;13.352;2023-04-25T17:08:29;13.60;43.20
19088;DHT22;9676;50.916;13.352;2023-04-25T17:11:18;13.60;43.20
19088;DHT22;9676;50.916;13.352;2023-04-25T17:14:07;13.60;43.20
19088;DHT22;9676;50.916;13.352;2023-04-25T17:16:57;13.60;43.20
19088;DHT22;9676;50.916;13.352;2023-04-25T17:19:47;13.60;43.20
19088;DHT22;9676;50.916;13.352;2023-04-25T17:22:37;13.60;43.10
19088;DHT22;9676;50.916;13.352;2023-04-25T17:25:26;13.60;43.10
19088;DHT22;9676;50.916;13.352;2023-04-25T17:28:15;13.50;43.00
19088;DHT22;9676;50.916;13.352;2023-04-25T17:31:05;13.50;42.90
19088;DHT22;9676;50.916;13.352;2023-04-25T17:33:55;13.50;43.00
19088;DHT22;9676;50.916;13.352;2023-04-25T17:36:47;13.50;43.00
19088;DHT22;9676;50.916;13.352;2023-04-25T17:39:36;13.40;42.90
19088;DHT22;9676;50.916;13.352;2023-04-25T17:42:26;13.40;42.90
19088;DHT22;9676;50.916;13.352;2023-04-25T17:45:15;13.30;42.90
19088;DHT22;9676;50.916;13.352;2023-04-25T17:48:05;13.30;42.90
19088;DHT22;9676;50.916;13.352;2023-04-25T17:50:55;13.30;43.00
19088;DHT22;9676;50.916;13.352;2023-04-25T17:53:46;13.20;42.90
19088;DHT22;9676;50.916;13.352;2023-04-25T17:56:35;13.20;43.00
19088;DHT22;9676;50.916;13.352;2023-04-25T17:59:25;13.20;43.00
19088;DHT22;9676;50.916;13.352;2023-04-25T18:02:15;13.10;42.80
19088;DHT22;9676;50.916;13.352;2023-04-25T18:05:06;13.10;42.90
19088;DHT22;9676;50.916;13.352;2023-04-25T18:07:57;13.00;42.70